sensor_id;sensor_type;location;lat;lon;timestamp;pressure;altitude;pressure_sealevel;temperature;humidity
15932;BME280;8065;49.520;11.284;2022-10-16T00:01:37;97391.88;;;18.63;97.82
15932;BME280;8065;49.520;11.284;2022-10-16T00:04:04;97392.25;;;18.61;97.94
15932;BME280;8065;49.520;11.284;2022-10-16T00:06:31;97390.34;;;18.62;98.06
15932;BME280;8065;49.520;11.284;2022-10-16T00:08:57;97381.13;;;18.63;98.00
15932;BME280;8065;49.520;11.284;2022-10-16T00:11:26;97390.38;;;18.65;98.18
15932;BME280;8065;49.520;11.284;2022-10-16T00:13:58;97387.28;;;18.63;97.91
15932;BME280;8065;49.520;11.284;2022-10-16T00:16:25;97388.41;;;18.62;97.95
15932;BME280;8065;49.520;11.284;2022-10-16T00:18:52;97391.09;;;18.62;98.22
15932;BME280;8065;49.520;11.284;2022-10-16T00:21:21;97395.75;;;18.65;98.13
15932;BME280;8065;49.520;11.284;2022-10-16T00:23:50;97401.16;;;18.69;98.23
15932;BME280;8065;49.520;11.284;2022-10-16T00:26:18;97400.75;;;18.67;98.09
15932;BME280;8065;49.520;11.284;2022-10-16T00:28:45;97399.66;;;18.75;97.45
15932;BME280;8065;49.520;11.284;2022-10-16T00:31:13;97406.22;;;18.78;97.42
15932;BME280;8065;49.520;11.284;2022-10-16T00:33:40;97406.63;;;18.80;97.16
15932;BME280;8065;49.520;11.284;2022-10-16T00:36:10;97402.03;;;18.84;96.88
15932;BME280;8065;49.520;11.284;2022-10-16T00:38:37;97398.66;;;18.94;96.48
15932;BME280;8065;49.520;11.284;2022-10-16T00:41:04;97399.78;;;18.89;97.04
15932;BME280;8065;49.520;11.284;2022-10-16T00:43:37;97398.94;;;18.82;97.11
15932;BME280;8065;49.520;11.284;2022-10-16T00:46:08;97409.72;;;18.82;97.06
15932;BME280;8065;49.520;11.284;2022-10-16T00:48:38;97407.38;;;18.77;97.41
15932;BME280;8065;49.520;11.284;2022-10-16T00:51:05;97410.06;;;18.77;97.30
15932;BME280;8065;49.520;11.284;2022-10-16T00:53:33;97399.63;;;18.72;97.94
15932;BME280;8065;49.520;11.284;2022-10-16T00:56:01;97390.25;;;18.55;98.69
15932;BME280;8065;49.520;11.284;2022-10-16T00:58:28;97410.25;;;18.57;98.75
15932;BME280;8065;49.520;11.284;2022-10-16T01:00:54;97401.03;;;18.58;98.64
15932;BME280;8065;49.520;11.284;2022-10-16T01:03:25;97402.53;;;18.52;99.11
15932;BME280;8065;49.520;11.284;2022-10-16T01:06:11;97406.38;;;18.51;99.15
15932;BME280;8065;49.520;11.284;2022-10-16T01:08:48;97409.38;;;18.46;99.54
15932;BME280;8065;49.520;11.284;2022-10-16T01:11:22;97415.56;;;18.50;99.24
15932;BME280;8065;49.520;11.284;2022-10-16T01:13:54;97421.72;;;18.51;99.21
15932;BME280;8065;49.520;11.284;2022-10-16T01:16:29;97419.81;;;18.51;99.21
15932;BME280;8065;49.520;11.284;2022-10-16T01:19:02;97414.06;;;18.53;99.33
15932;BME280;8065;49.520;11.284;2022-10-16T01:21:35;97416.38;;;18.54;98.96
15932;BME280;8065;49.520;11.284;2022-10-16T01:24:07;97420.63;;;18.55;99.17
15932;BME280;8065;49.520;11.284;2022-10-16T01:29:20;97411.00;;;18.54;98.89
15932;BME280;8065;49.520;11.284;2022-10-16T01:31:53;97421.00;;;18.54;99.11
15932;BME280;8065;49.520;11.284;2022-10-16T01:34:25;97419.97;;;18.65;98.94
15932;BME280;8065;49.520;11.284;2022-10-16T01:37:02;97418.72;;;19.00;96.77
15932;BME280;8065;49.520;11.284;2022-10-16T01:39:33;97417.59;;;19.08;96.31
15932;BME280;8065;49.520;11.284;2022-10-16T01:42:04;97429.91;;;19.09;95.95
15932;BME280;8065;49.520;11.284;2022-10-16T01:44:33;97418.38;;;19.12;96.20
15932;BME280;8065;49.520;11.284;2022-10-16T01:47:03;97422.19;;;19.08;96.04
15932;BME280;8065;49.520;11.284;2022-10-16T01:49:33;97425.13;;;18.85;97.37
15932;BME280;8065;49.520;11.284;2022-10-16T01:52:04;97427.34;;;18.72;97.73
15932;BME280;8065;49.520;11.284;2022-10-16T01:54:33;97429.63;;;18.70;98.02
15932;BME280;8065;49.520;11.284;2022-10-16T01:57:02;97435.84;;;18.78;97.68
15932;BME280;8065;49.520;11.284;2022-10-16T01:59:33;97426.41;;;18.57;98.24
15932;BME280;8065;49.520;11.284;2022-10-16T02:02:06;97430.66;;;18.58;98.87
15932;BME280;8065;49.520;11.284;2022-10-16T02:04:37;97442.25;;;18.62;98.43
15932;BME280;8065;49.520;11.284;2022-10-16T02:07:05;97446.50;;;18.63;98.66
15932;BME280;8065;49.520;11.284;2022-10-16T02:09:34;97453.41;;;18.64;98.33
15932;BME280;8065;49.520;11.284;2022-10-16T02:12:05;97454.56;;;18.63;98.42
15932;BME280;8065;49.520;11.284;2022-10-16T02:14:34;97448.84;;;18.69;98.36
15932;BME280;8065;49.520;11.284;2022-10-16T02:17:11;97448.78;;;18.61;97.98
15932;BME280;8065;49.520;11.284;2022-10-16T02:19:37;97454.16;;;18.61;98.24
15932;BME280;8065;49.520;11.284;2022-10-16T02:22:05;97451.09;;;18.63;98.37
15932;BME280;8065;49.520;11.284;2022-10-16T02:24:36;97445.75;;;18.66;98.23
15932;BME280;8065;49.520;11.284;2022-10-16T02:27:08;97452.69;;;18.67;98.43
15932;BME280;8065;49.520;11.284;2022-10-16T02:29:40;97455.00;;;18.69;98.24
15932;BME280;8065;49.520;11.284;2022-10-16T02:32:10;97451.03;;;18.59;98.55
15932;BME280;8065;49.520;11.284;2022-10-16T02:34:40;97454.97;;;18.65;98.37
15932;BME280;8065;49.520;11.284;2022-10-16T02:37:07;97455.75;;;18.66;98.31
15932;BME280;8065;49.520;11.284;2022-10-16T02:39:35;97449.91;;;18.60;98.16
15932;BME280;8065;49.520;11.284;2022-10-16T02:42:03;97452.63;;;18.60;98.47
15932;BME280;8065;49.520;11.284;2022-10-16T02:44:29;97453.72;;;18.59;98.66
15932;BME280;8065;49.520;11.284;2022-10-16T02:46:57;97445.72;;;18.63;98.62
15932;BME280;8065;49.520;11.284;2022-10-16T02:49:23;97443.72;;;19.01;96.51
15932;BME280;8065;49.520;11.284;2022-10-16T02:51:50;97447.59;;;19.03;96.29
15932;BME280;8065;49.520;11.284;2022-10-16T02:54:16;97454.53;;;19.08;95.94
15932;BME280;8065;49.520;11.284;2022-10-16T02:56:43;97448.34;;;19.07;95.86
15932;BME280;8065;49.520;11.284;2022-10-16T02:59:09;97444.53;;;19.08;95.92
15932;BME280;8065;49.520;11.284;2022-10-16T03:01:36;97440.69;;;19.06;95.74
15932;BME280;8065;49.520;11.284;2022-10-16T03:04:04;97442.97;;;19.07;95.79
15932;BME280;8065;49.520;11.284;2022-10-16T03:06:30;97445.66;;;19.07;95.92
15932;BME280;8065;49.520;11.284;2022-10-16T03:08:57;97449.03;;;18.90;96.94
15932;BME280;8065;49.520;11.284;2022-10-16T03:11:23;97447.81;;;18.84;97.17
15932;BME280;8065;49.520;11.284;2022-10-16T03:13:49;97438.94;;;18.80;97.46
15932;BME280;8065;49.520;11.284;2022-10-16T03:16:16;97455.03;;;18.73;97.86
15932;BME280;8065;49.520;11.284;2022-10-16T03:18:42;97453.19;;;18.43;99.76
15932;BME280;8065;49.520;11.284;2022-10-16T03:21:10;97452.38;;;18.39;99.83
15932;BME280;8065;49.520;11.284;2022-10-16T03:23:37;97454.63;;;18.33;100.00
15932;BME280;8065;49.520;11.284;2022-10-16T03:26:03;97459.22;;;18.33;100.00
15932;BME280;8065;49.520;11.284;2022-10-16T03:28:30;97452.31;;;18.32;100.00
15932;BME280;8065;49.520;11.284;2022-10-16T03:30:56;97455.41;;;18.34;100.00
15932;BME280;8065;49.520;11.284;2022-10-16T03:33:23;97455.41;;;18.34;100.00
15932;BME280;8065;49.520;11.284;2022-10-16T03:35:53;97464.59;;;18.33;100.00
15932;BME280;8065;49.520;11.284;2022-10-16T03:38:21;97460.78;;;18.34;100.00
15932;BME280;8065;49.520;11.284;2022-10-16T03:40:47;97453.84;;;18.33;100.00
15932;BME280;8065;49.520;11.284;2022-10-16T03:43:14;97463.94;;;18.43;100.00
15932;BME280;8065;49.520;11.284;2022-10-16T03:45:40;97458.56;;;18.43;100.00
15932;BME280;8065;49.520;11.284;2022-10-16T03:48:07;97467.03;;;18.45;100.00
15932;BME280;8065;49.520;11.284;2022-10-16T03:50:33;97461.66;;;18.45;100.00
15932;BME280;8065;49.520;11.284;2022-10-16T03:53:00;97463.22;;;18.46;100.00
15932;BME280;8065;49.520;11.284;2022-10-16T03:55:27;97465.50;;;18.44;100.00
15932;BME280;8065;49.520;11.284;2022-10-16T03:57:54;97464.72;;;18.44;100.00
15932;BME280;8065;49.520;11.284;2022-10-16T04:00:20;97463.94;;;18.43;100.00
15932;BME280;8065;49.520;11.284;2022-10-16T04:02:47;97469.25;;;18.36;100.00
15932;BME280;8065;49.520;11.284;2022-10-16T04:05:13;97468.53;;;18.39;100.00
15932;BME280;8065;49.520;11.284;2022-10-16T04:07:40;97465.81;;;18.39;100.00
15932;BME280;8065;49.520;11.284;2022-10-16T04:10:07;97462.72;;;18.37;100.00
15932;BME280;8065;49.520;11.284;2022-10-16T04:12:35;97460.03;;;18.37;100.00
15932;BME280;8065;49.520;11.284;2022-10-16T04:15:02;97467.00;;;18.42;100.00
15932;BME280;8065;49.520;11.284;2022-10-16T04:17:28;97470.84;;;18.41;100.00
15932;BME280;8065;49.520;11.284;2022-10-16T04:19:55;97473.91;;;18.39;100.00
15932;BME280;8065;49.520;11.284;2022-10-16T04:22:21;97484.66;;;18.39;100.00
15932;BME280;8065;49.520;11.284;2022-10-16T04:24:48;97486.22;;;18.40;100.00
15932;BME280;8065;49.520;11.284;2022-10-16T04:27:14;97500.81;;;18.39;100.00
15932;BME280;8065;49.520;11.284;2022-10-16T04:29:42;97501.22;;;18.41;100.00
15932;BME280;8065;49.520;11.284;2022-10-16T04:32:09;97501.19;;;18.38;100.00
15932;BME280;8065;49.520;11.284;2022-10-16T04:34:36;97509.25;;;18.38;100.00
15932;BME280;8065;49.520;11.284;2022-10-16T04:37:03;97507.69;;;18.37;100.00
15932;BME280;8065;49.520;11.284;2022-10-16T04:39:29;97509.22;;;18.34;100.00
15932;BME280;8065;49.520;11.284;2022-10-16T04:41:56;97498.06;;;18.35;99.94
15932;BME280;8065;49.520;11.284;2022-10-16T04:44:22;97496.91;;;18.33;100.00
15932;BME280;8065;49.520;11.284;2022-10-16T04:46:51;97496.16;;;18.36;100.00
15932;BME280;8065;49.520;11.284;2022-10-16T04:49:18;97495.03;;;18.37;100.00
15932;BME280;8065;49.520;11.284;2022-10-16T04:51:44;97495.06;;;18.41;100.00
15932;BME280;8065;49.520;11.284;2022-10-16T04:54:11;97495.44;;;18.39;100.00
15932;BME280;8065;49.520;11.284;2022-10-16T04:56:37;97500.00;;;18.35;100.00
15932;BME280;8065;49.520;11.284;2022-10-16T04:59:12;97492.25;;;18.30;100.00
15932;BME280;8065;49.520;11.284;2022-10-16T05:01:38;97495.34;;;18.32;100.00
15932;BME280;8065;49.520;11.284;2022-10-16T05:04:06;97493.03;;;18.30;100.00
15932;BME280;8065;49.520;11.284;2022-10-16T05:06:33;97486.09;;;18.29;100.00
15932;BME280;8065;49.520;11.284;2022-10-16T05:08:59;97492.25;;;18.30;100.00
15932;BME280;8065;49.520;11.284;2022-10-16T05:11:26;97488.78;;;18.29;100.00
15932;BME280;8065;49.520;11.284;2022-10-16T05:13:52;97493.41;;;18.29;100.00
15932;BME280;8065;49.520;11.284;2022-10-16T05:16:19;97488.34;;;18.24;100.00
15932;BME280;8065;49.520;11.284;2022-10-16T05:18:45;97495.22;;;18.18;100.00
15932;BME280;8065;49.520;11.284;2022-10-16T05:21:13;97494.81;;;18.16;100.00
15932;BME280;8065;49.520;11.284;2022-10-16T05:23:39;97493.66;;;18.17;100.00
15932;BME280;8065;49.520;11.284;2022-10-16T05:26:06;97492.81;;;17.79;100.00
15932;BME280;8065;49.520;11.284;2022-10-16T05:28:32;97492.13;;;17.59;100.00
15932;BME280;8065;49.520;11.284;2022-10-16T05:30:59;97498.22;;;17.56;100.00
15932;BME280;8065;49.520;11.284;2022-10-16T05:33:25;97497.75;;;17.51;100.00
15932;BME280;8065;49.520;11.284;2022-10-16T05:35:52;97495.09;;;18.07;100.00
15932;BME280;8065;49.520;11.284;2022-10-16T05:38:20;97503.91;;;18.41;100.00
15932;BME280;8065;49.520;11.284;2022-10-16T05:40:50;97510.09;;;18.45;100.00
15932;BME280;8065;49.520;11.284;2022-10-16T05:43:17;97507.78;;;18.44;100.00
15932;BME280;8065;49.520;11.284;2022-10-16T05:45:44;97511.59;;;18.43;100.00
15932;BME280;8065;49.520;11.284;2022-10-16T05:48:10;97523.47;;;18.38;100.00
15932;BME280;8065;49.520;11.284;2022-10-16T05:50:36;97523.88;;;18.40;100.00
15932;BME280;8065;49.520;11.284;2022-10-16T05:53:03;97535.47;;;18.44;100.00
15932;BME280;8065;49.520;11.284;2022-10-16T05:55:31;97540.84;;;18.44;100.00
15932;BME280;8065;49.520;11.284;2022-10-16T05:57:57;97547.84;;;18.52;99.78
15932;BME280;8065;49.520;11.284;2022-10-16T06:00:23;97545.91;;;18.49;99.76
15932;BME280;8065;49.520;11.284;2022-10-16T06:02:50;97548.66;;;18.56;99.66
15932;BME280;8065;49.520;11.284;2022-10-16T06:05:16;97555.38;;;18.70;98.95
15932;BME280;8065;49.520;11.284;2022-10-16T06:07:43;97548.84;;;18.71;98.76
15932;BME280;8065;49.520;11.284;2022-10-16T06:10:09;97542.72;;;18.74;98.88
15932;BME280;8065;49.520;11.284;2022-10-16T06:12:37;97553.50;;;18.74;98.33
15932;BME280;8065;49.520;11.284;2022-10-16T06:15:04;97556.44;;;18.61;99.02
15932;BME280;8065;49.520;11.284;2022-10-16T06:17:30;97559.91;;;18.62;99.28
15932;BME280;8065;49.520;11.284;2022-10-16T06:19:57;97563.38;;;18.62;98.97
15932;BME280;8065;49.520;11.284;2022-10-16T06:22:23;97567.91;;;18.58;99.15
15932;BME280;8065;49.520;11.284;2022-10-16T06:24:50;97562.44;;;18.51;99.70
15932;BME280;8065;49.520;11.284;2022-10-16T06:27:16;97568.59;;;18.52;99.77
15932;BME280;8065;49.520;11.284;2022-10-16T06:29:44;97576.97;;;18.43;100.00
15932;BME280;8065;49.520;11.284;2022-10-16T06:32:11;97572.72;;;18.42;100.00
15932;BME280;8065;49.520;11.284;2022-10-16T06:34:37;97563.09;;;18.41;100.00
15932;BME280;8065;49.520;11.284;2022-10-16T06:37:05;97564.66;;;18.42;100.00
15932;BME280;8065;49.520;11.284;2022-10-16T06:39:31;97560.41;;;18.41;100.00
15932;BME280;8065;49.520;11.284;2022-10-16T06:41:58;97575.47;;;18.46;100.00
15932;BME280;8065;49.520;11.284;2022-10-16T06:44:24;97580.88;;;18.49;100.00
15932;BME280;8065;49.520;11.284;2022-10-16T06:46:52;97574.03;;;18.55;100.00
15932;BME280;8065;49.520;11.284;2022-10-16T06:49:19;97585.63;;;18.59;100.00
15932;BME280;8065;49.520;11.284;2022-10-16T06:51:47;97579.53;;;18.62;100.00
15932;BME280;8065;49.520;11.284;2022-10-16T06:54:15;97583.47;;;18.72;100.00
15932;BME280;8065;49.520;11.284;2022-10-16T06:56:43;97576.66;;;18.82;100.00
15932;BME280;8065;49.520;11.284;2022-10-16T06:59:09;97579.69;;;18.77;100.00
15932;BME280;8065;49.520;11.284;2022-10-16T07:01:36;97581.97;;;18.75;100.00
15932;BME280;8065;49.520;11.284;2022-10-16T07:04:03;97589.72;;;18.80;100.00
15932;BME280;8065;49.520;11.284;2022-10-16T07:06:32;97592.09;;;18.85;100.00
15932;BME280;8065;49.520;11.284;2022-10-16T07:09:02;97597.53;;;18.92;100.00
15932;BME280;8065;49.520;11.284;2022-10-16T07:11:28;97606.84;;;18.98;100.00
15932;BME280;8065;49.520;11.284;2022-10-16T07:13:55;97606.03;;;18.94;100.00
15932;BME280;8065;49.520;11.284;2022-10-16T07:16:22;97617.56;;;18.94;100.00
15932;BME280;8065;49.520;11.284;2022-10-16T07:18:49;97621.50;;;19.01;100.00
15932;BME280;8065;49.520;11.284;2022-10-16T07:21:19;97632.31;;;19.04;100.00
15932;BME280;8065;49.520;11.284;2022-10-16T07:23:50;97645.41;;;19.09;100.00
15932;BME280;8065;49.520;11.284;2022-10-16T07:26:16;97640.78;;;19.10;100.00
15932;BME280;8065;49.520;11.284;2022-10-16T07:28:43;97636.19;;;19.10;100.00
15932;BME280;8065;49.520;11.284;2022-10-16T07:31:11;97634.63;;;19.09;100.00
15932;BME280;8065;49.520;11.284;2022-10-16T07:33:40;97638.53;;;19.15;100.00
15932;BME280;8065;49.520;11.284;2022-10-16T07:36:09;97648.22;;;19.20;100.00
15932;BME280;8065;49.520;11.284;2022-10-16T07:38:37;97650.94;;;19.23;100.00
15932;BME280;8065;49.520;11.284;2022-10-16T07:41:06;97651.72;;;19.24;100.00
15932;BME280;8065;49.520;11.284;2022-10-16T07:43:33;97655.19;;;19.24;100.00
15932;BME280;8065;49.520;11.284;2022-10-16T07:46:00;97663.28;;;19.24;100.00
15932;BME280;8065;49.520;11.284;2022-10-16T07:48:27;97670.75;;;19.01;100.00
15932;BME280;8065;49.520;11.284;2022-10-16T07:50:57;97667.53;;;18.88;100.00
15932;BME280;8065;49.520;11.284;2022-10-16T07:53:23;97672.88;;;18.85;100.00
15932;BME280;8065;49.520;11.284;2022-10-16T07:55:51;97660.53;;;18.84;100.00
15932;BME280;8065;49.520;11.284;2022-10-16T07:58:18;97652.88;;;18.86;100.00
15932;BME280;8065;49.520;11.284;2022-10-16T08:00:44;97647.09;;;18.84;100.00
15932;BME280;8065;49.520;11.284;2022-10-16T08:03:11;97651.31;;;18.85;100.00
15932;BME280;8065;49.520;11.284;2022-10-16T08:05:37;97640.22;;;18.90;100.00
15932;BME280;8065;49.520;11.284;2022-10-16T08:08:03;97645.31;;;18.98;100.00
15932;BME280;8065;49.520;11.284;2022-10-16T08:10:30;97646.13;;;19.03;100.00
15932;BME280;8065;49.520;11.284;2022-10-16T08:12:58;97656.97;;;19.10;100.00
15932;BME280;8065;49.520;11.284;2022-10-16T08:15:24;97663.41;;;18.98;100.00
15932;BME280;8065;49.520;11.284;2022-10-16T08:17:55;97668.16;;;18.78;100.00
15932;BME280;8065;49.520;11.284;2022-10-16T08:20:22;97670.50;;;18.80;100.00
15932;BME280;8065;49.520;11.284;2022-10-16T08:22:48;97671.69;;;19.19;100.00
15932;BME280;8065;49.520;11.284;2022-10-16T08:25:15;97669.53;;;19.36;100.00
15932;BME280;8065;49.520;11.284;2022-10-16T08:27:41;97685.38;;;19.78;100.00
15932;BME280;8065;49.520;11.284;2022-10-16T08:30:10;97689.31;;;19.94;99.63
15932;BME280;8065;49.520;11.284;2022-10-16T08:32:37;97692.47;;;20.04;99.17
15932;BME280;8065;49.520;11.284;2022-10-16T08:35:04;97681.34;;;20.09;97.35
15932;BME280;8065;49.520;11.284;2022-10-16T08:37:30;97684.09;;;20.16;96.13
15932;BME280;8065;49.520;11.284;2022-10-16T08:39:57;97680.09;;;19.95;96.76
15932;BME280;8065;49.520;11.284;2022-10-16T08:42:35;97688.22;;;19.51;98.32
15932;BME280;8065;49.520;11.284;2022-10-16T08:45:19;97684.31;;;19.49;98.53
15932;BME280;8065;49.520;11.284;2022-10-16T08:47:49;97686.00;;;19.64;99.40
15932;BME280;8065;49.520;11.284;2022-10-16T08:50:22;97682.34;;;19.86;98.67
15932;BME280;8065;49.520;11.284;2022-10-16T08:52:50;97683.94;;;19.91;97.15
15932;BME280;8065;49.520;11.284;2022-10-16T08:55:28;97687.09;;;20.04;96.70
15932;BME280;8065;49.520;11.284;2022-10-16T08:57:55;97697.31;;;20.32;95.07
15932;BME280;8065;49.520;11.284;2022-10-16T09:00:24;97692.16;;;20.74;93.44
15932;BME280;8065;49.520;11.284;2022-10-16T09:02:55;97696.81;;;20.77;93.30
15932;BME280;8065;49.520;11.284;2022-10-16T09:05:43;97695.75;;;21.10;90.93
15932;BME280;8065;49.520;11.284;2022-10-16T09:08:20;97689.28;;;21.29;90.82
15932;BME280;8065;49.520;11.284;2022-10-16T09:10:55;97694.25;;;21.16;91.70
15932;BME280;8065;49.520;11.284;2022-10-16T09:13:27;97691.53;;;21.16;91.82
15932;BME280;8065;49.520;11.284;2022-10-16T09:16:03;97693.16;;;21.32;91.59
15932;BME280;8065;49.520;11.284;2022-10-16T09:18:41;97683.13;;;21.36;92.04
15932;BME280;8065;49.520;11.284;2022-10-16T09:21:15;97698.56;;;21.39;91.65
15932;BME280;8065;49.520;11.284;2022-10-16T09:23:43;97700.94;;;21.65;88.26
15932;BME280;8065;49.520;11.284;2022-10-16T09:26:11;97695.03;;;21.20;87.95
15932;BME280;8065;49.520;11.284;2022-10-16T09:28:39;97691.63;;;21.41;88.71
15932;BME280;8065;49.520;11.284;2022-10-16T09:31:13;97689.31;;;21.47;88.29
15932;BME280;8065;49.520;11.284;2022-10-16T09:33:43;97700.16;;;21.61;86.73
15932;BME280;8065;49.520;11.284;2022-10-16T09:36:12;97701.69;;;21.76;85.96
15932;BME280;8065;49.520;11.284;2022-10-16T09:38:39;97704.78;;;21.92;86.35
15932;BME280;8065;49.520;11.284;2022-10-16T09:41:15;97702.84;;;21.89;84.72
15932;BME280;8065;49.520;11.284;2022-10-16T09:43:47;97712.91;;;21.85;85.05
15932;BME280;8065;49.520;11.284;2022-10-16T09:46:26;97712.53;;;21.62;84.01
15932;BME280;8065;49.520;11.284;2022-10-16T09:48:54;97715.59;;;21.57;83.44
15932;BME280;8065;49.520;11.284;2022-10-16T09:51:24;97711.72;;;21.51;83.92
15932;BME280;8065;49.520;11.284;2022-10-16T09:53:55;97717.13;;;21.44;83.58
15932;BME280;8065;49.520;11.284;2022-10-16T09:56:24;97726.03;;;21.69;83.14
15932;BME280;8065;49.520;11.284;2022-10-16T09:58:52;97721.78;;;21.75;82.95
15932;BME280;8065;49.520;11.284;2022-10-16T10:01:20;97725.66;;;21.67;83.34
15932;BME280;8065;49.520;11.284;2022-10-16T10:03:48;97733.41;;;22.01;82.16
15932;BME280;8065;49.520;11.284;2022-10-16T10:06:22;97732.63;;;22.00;82.24
15932;BME280;8065;49.520;11.284;2022-10-16T10:09:14;97729.94;;;22.00;81.50
15932;BME280;8065;49.520;11.284;2022-10-16T10:11:44;97733.44;;;22.15;80.42
15932;BME280;8065;49.520;11.284;2022-10-16T10:14:17;97724.50;;;22.00;81.08
15932;BME280;8065;49.520;11.284;2022-10-16T10:16:45;97728.78;;;22.05;81.11
15932;BME280;8065;49.520;11.284;2022-10-16T10:19:16;97731.06;;;21.88;82.50
15932;BME280;8065;49.520;11.284;2022-10-16T10:21:43;97731.09;;;21.92;83.08
15932;BME280;8065;49.520;11.284;2022-10-16T10:24:11;97734.19;;;21.94;83.48
15932;BME280;8065;49.520;11.284;2022-10-16T10:26:38;97728.75;;;21.87;82.99
15932;BME280;8065;49.520;11.284;2022-10-16T10:29:10;97729.91;;;21.89;82.91
15932;BME280;8065;49.520;11.284;2022-10-16T10:31:43;97728.34;;;21.74;84.01
15932;BME280;8065;49.520;11.284;2022-10-16T10:34:31;97733.41;;;21.86;82.38
15932;BME280;8065;49.520;11.284;2022-10-16T10:37:04;97730.31;;;21.81;82.90
15932;BME280;8065;49.520;11.284;2022-10-16T10:39:40;97731.84;;;21.85;82.90
15932;BME280;8065;49.520;11.284;2022-10-16T10:42:18;97729.53;;;21.87;82.99
15932;BME280;8065;49.520;11.284;2022-10-16T10:44:56;97722.97;;;21.85;82.90
15932;BME280;8065;49.520;11.284;2022-10-16T10:47:35;97728.00;;;21.90;82.88
15932;BME280;8065;49.520;11.284;2022-10-16T10:50:12;97730.34;;;22.31;81.41
15932;BME280;8065;49.520;11.284;2022-10-16T10:52:54;97730.31;;;22.41;81.93
15932;BME280;8065;49.520;11.284;2022-10-16T10:55:29;97733.41;;;22.43;82.34
15932;BME280;8065;49.520;11.284;2022-10-16T11:00:57;97732.56;;;22.68;80.68
15932;BME280;8065;49.520;11.284;2022-10-16T11:03:56;97729.06;;;22.71;80.49
15932;BME280;8065;49.520;11.284;2022-10-16T11:06:29;97727.50;;;22.84;79.65
15932;BME280;8065;49.520;11.284;2022-10-16T11:09:00;97728.31;;;22.81;79.66
15932;BME280;8065;49.520;11.284;2022-10-16T11:11:32;97726.41;;;22.56;80.63
15932;BME280;8065;49.520;11.284;2022-10-16T11:14:04;97739.53;;;22.69;80.84
15932;BME280;8065;49.520;11.284;2022-10-16T11:16:36;97744.94;;;22.76;80.40
15932;BME280;8065;49.520;11.284;2022-10-16T11:19:11;97733.34;;;22.79;80.69
15932;BME280;8065;49.520;11.284;2022-10-16T11:21:44;97734.88;;;22.73;80.26
15932;BME280;8065;49.520;11.284;2022-10-16T11:24:20;97733.41;;;22.43;80.94
15932;BME280;8065;49.520;11.284;2022-10-16T11:26:49;97732.56;;;22.61;80.49
15932;BME280;8065;49.520;11.284;2022-10-16T11:29:21;97729.47;;;22.80;79.98
15932;BME280;8065;49.520;11.284;2022-10-16T11:31:52;97731.72;;;23.03;79.12
15932;BME280;8065;49.520;11.284;2022-10-16T11:34:25;97727.03;;;23.10;78.36
15932;BME280;8065;49.520;11.284;2022-10-16T11:36:58;97730.84;;;23.24;78.27
15932;BME280;8065;49.520;11.284;2022-10-16T11:39:28;97729.59;;;23.39;77.74
15932;BME280;8065;49.520;11.284;2022-10-16T11:42:01;97736.91;;;23.42;77.75
15932;BME280;8065;49.520;11.284;2022-10-16T11:44:44;97726.19;;;23.28;77.23
15932;BME280;8065;49.520;11.284;2022-10-16T11:47:24;97740.81;;;23.41;77.66
15932;BME280;8065;49.520;11.284;2022-10-16T11:49:57;97734.00;;;23.08;78.16
15932;BME280;8065;49.520;11.284;2022-10-16T11:52:30;97737.31;;;23.44;77.15
15932;BME280;8065;49.520;11.284;2022-10-16T11:55:04;97736.22;;;23.34;78.40
15932;BME280;8065;49.520;11.284;2022-10-16T11:57:40;97744.59;;;23.61;78.35
15932;BME280;8065;49.520;11.284;2022-10-16T12:00:10;97736.22;;;23.97;76.89
15932;BME280;8065;49.520;11.284;2022-10-16T12:02:50;97738.41;;;24.12;75.87
15932;BME280;8065;49.520;11.284;2022-10-16T12:05:23;97734.44;;;24.24;75.19
15932;BME280;8065;49.520;11.284;2022-10-16T12:07:59;97740.53;;;23.91;75.13
15932;BME280;8065;49.520;11.284;2022-10-16T12:10:29;97738.44;;;24.09;74.84
15932;BME280;8065;49.520;11.284;2022-10-16T12:12:57;97743.50;;;24.51;74.01
15932;BME280;8065;49.520;11.284;2022-10-16T12:15:26;97745.94;;;24.80;73.08
15932;BME280;8065;49.520;11.284;2022-10-16T12:17:52;97742.28;;;24.97;72.61
15932;BME280;8065;49.520;11.284;2022-10-16T12:20:28;97740.63;;;25.34;71.46
15932;BME280;8065;49.520;11.284;2022-10-16T12:23:00;97736.34;;;25.63;70.39
15932;BME280;8065;49.520;11.284;2022-10-16T12:25:29;97731.31;;;25.89;69.10
15932;BME280;8065;49.520;11.284;2022-10-16T12:28:01;97739.50;;;26.12;68.29
15932;BME280;8065;49.520;11.284;2022-10-16T12:30:30;97743.34;;;26.14;67.65
15932;BME280;8065;49.520;11.284;2022-10-16T12:32:58;97742.63;;;26.10;66.33
15932;BME280;8065;49.520;11.284;2022-10-16T12:35:28;97739.53;;;26.08;65.97
15932;BME280;8065;49.520;11.284;2022-10-16T12:38:07;97733.09;;;26.22;65.03
15932;BME280;8065;49.520;11.284;2022-10-16T12:40:38;97730.44;;;26.19;65.28
15932;BME280;8065;49.520;11.284;2022-10-16T12:43:13;97732.50;;;26.11;64.62
15932;BME280;8065;49.520;11.284;2022-10-16T12:45:59;97735.09;;;26.18;65.33
15932;BME280;8065;49.520;11.284;2022-10-16T12:48:26;97733.16;;;26.19;65.17
15932;BME280;8065;49.520;11.284;2022-10-16T12:50:53;97732.19;;;26.29;64.78
15932;BME280;8065;49.520;11.284;2022-10-16T12:53:23;97731.63;;;26.18;65.92
15932;BME280;8065;49.520;11.284;2022-10-16T12:55:57;97728.25;;;26.33;64.58
15932;BME280;8065;49.520;11.284;2022-10-16T12:58:38;97725.88;;;26.35;65.49
15932;BME280;8065;49.520;11.284;2022-10-16T13:01:17;97729.31;;;26.39;64.97
15932;BME280;8065;49.520;11.284;2022-10-16T13:03:58;97730.16;;;26.36;64.95
15932;BME280;8065;49.520;11.284;2022-10-16T13:06:34;97728.47;;;26.19;64.64
15932;BME280;8065;49.520;11.284;2022-10-16T13:09:32;97741.03;;;26.13;64.31
15932;BME280;8065;49.520;11.284;2022-10-16T13:12:15;97739.84;;;26.14;64.65
15932;BME280;8065;49.520;11.284;2022-10-16T13:15:00;97738.41;;;26.29;64.78
15932;BME280;8065;49.520;11.284;2022-10-16T13:17:34;97743.88;;;26.29;65.34